createdAt,value
2023-03-25T00:02:27.758Z,98713.44
2023-03-25T00:04:54.976Z,98713.38
2023-03-25T00:07:22.883Z,98720.19
2023-03-25T00:09:49.973Z,98720.22
2023-03-25T00:12:18.941Z,98718.53
2023-03-25T00:14:54.597Z,98715.09
2023-03-25T00:17:23.078Z,98726.22
2023-03-25T00:19:52.815Z,98728.84
2023-03-25T00:22:19.667Z,98722.91
2023-03-25T00:24:46.707Z,98715.25
2023-03-25T00:27:14.560Z,98722.91
2023-03-25T00:29:44.699Z,98713.50
2023-03-25T00:32:12.949Z,98714.34
2023-03-25T00:34:47.658Z,98720.41
2023-03-25T00:37:17.742Z,98715.28
2023-03-25T00:39:45.820Z,98709.25
2023-03-25T00:42:16.282Z,98712.63
2023-03-25T00:44:43.845Z,98704.91
2023-03-25T00:47:12.546Z,98708.22
2023-03-25T00:49:39.456Z,98713.16
2023-03-25T00:52:06.690Z,98709.63
2023-03-25T00:54:34.397Z,98712.91
2023-03-25T00:57:01.406Z,98707.72
2023-03-25T00:59:28.415Z,98696.63
2023-03-25T01:01:56.343Z,98701.75
2023-03-25T01:04:23.373Z,98703.38
2023-03-25T01:06:51.894Z,98699.94
2023-03-25T01:09:19.826Z,98687.16
2023-03-25T01:11:46.896Z,98679.28
2023-03-25T01:14:18.770Z,98685.81
2023-03-25T01:16:46.349Z,98685.66
2023-03-25T01:19:13.485Z,98678.75
2023-03-25T01:21:40.881Z,98674.38
2023-03-25T01:24:10.327Z,98680.38
2023-03-25T01:26:38.022Z,98683.13
2023-03-25T01:29:05.877Z,98685.03
2023-03-25T01:31:33.510Z,98674.88
2023-03-25T01:34:00.753Z,98667.19
2023-03-25T01:36:30.689Z,98667.16
2023-03-25T01:38:59.216Z,98659.41
2023-03-25T01:41:35.685Z,98662.75
2023-03-25T01:44:06.133Z,98669.50
2023-03-25T01:46:33.442Z,98648.16
2023-03-25T01:49:01.277Z,98642.94
2023-03-25T01:51:34.026Z,98637.88
2023-03-25T01:54:00.956Z,98635.31
2023-03-25T01:56:31.969Z,98636.16
2023-03-25T01:59:04.307Z,98636.13
2023-03-25T02:01:31.476Z,98635.28
2023-03-25T02:04:03.467Z,98638.72
2023-03-25T02:06:36.713Z,98637.84
2023-03-25T02:09:09.153Z,98635.38
2023-03-25T02:11:36.345Z,98631.09
2023-03-25T02:14:04.947Z,98630.34
2023-03-25T02:17:03.490Z,98629.53
2023-03-25T02:19:51.424Z,98622.75
2023-03-25T02:22:56.369Z,98609.03
2023-03-25T02:25:35.844Z,98619.16
2023-03-25T02:28:03.849Z,98609.81
2023-03-25T02:30:39.971Z,98614.06
2023-03-25T02:33:28.704Z,98603.81
2023-03-25T02:36:23.732Z,98595.28
2023-03-25T02:39:11.623Z,98585.88
2023-03-25T02:42:17.119Z,98588.44
2023-03-25T02:44:55.864Z,98579.88
2023-03-25T02:47:23.452Z,98582.44
2023-03-25T02:49:59.450Z,98573.91
2023-03-25T02:52:43.694Z,98567.00
2023-03-25T02:55:11.465Z,98567.75
2023-03-25T02:57:41.748Z,98565.19
2023-03-25T03:00:15.506Z,98564.41
2023-03-25T03:02:44.781Z,98566.25
2023-03-25T03:05:28.884Z,98568.06
2023-03-25T03:08:09.211Z,98564.72
2023-03-25T03:10:48.876Z,98558.81
2023-03-25T03:13:24.520Z,98546.06
2023-03-25T03:16:24.980Z,98543.56
2023-03-25T03:19:02.349Z,98540.16
2023-03-25T03:21:41.730Z,98534.25
2023-03-25T03:24:27.103Z,98535.19
2023-03-25T03:27:04.227Z,98526.72
2023-03-25T03:29:39.901Z,98523.41
2023-03-25T03:32:21.074Z,98514.97
2023-03-25T03:35:20.428Z,98514.22
2023-03-25T03:37:58.239Z,98516.81
2023-03-25T03:40:25.346Z,98514.34
2023-03-25T03:43:16.797Z,98508.41
2023-03-25T03:45:46.522Z,98525.56
2023-03-25T03:48:22.246Z,98519.63
2023-03-25T03:51:31.948Z,98505.22
2023-03-25T03:54:00.858Z,98501.81
2023-03-25T03:57:08.568Z,98497.59
2023-03-25T03:59:35.400Z,98494.19
2023-03-25T04:02:03.434Z,98484.75
2023-03-25T04:04:30.474Z,98487.31
2023-03-25T04:07:10.680Z,98481.38
2023-03-25T04:09:55.269Z,98491.69
2023-03-25T04:12:29.284Z,98476.31
2023-03-25T04:14:56.257Z,98466.09
2023-03-25T04:17:24.271Z,98464.41
2023-03-25T04:19:53.679Z,98460.16
2023-03-25T04:22:21.936Z,98450.78
2023-03-25T04:24:55.049Z,98449.09
2023-03-25T04:27:23.229Z,98441.47
2023-03-25T04:29:51.974Z,98436.41
2023-03-25T04:32:19.104Z,98433.03
2023-03-25T04:34:47.094Z,98427.94
2023-03-25T04:37:14.208Z,98429.75
2023-03-25T04:39:41.710Z,98431.56
2023-03-25T04:42:13.821Z,98426.53
2023-03-25T04:44:40.774Z,98424.88
2023-03-25T04:47:07.796Z,98428.34
2023-03-25T04:49:34.661Z,98427.53
2023-03-25T04:52:04.337Z,98409.63
2023-03-25T04:54:31.533Z,98404.56
2023-03-25T04:56:59.167Z,98399.47
2023-03-25T04:59:27.212Z,98380.66
2023-03-25T05:01:54.208Z,98389.22
2023-03-25T05:04:21.674Z,98379.84
2023-03-25T05:06:50.623Z,98379.84
2023-03-25T05:09:19.640Z,98367.91
2023-03-25T05:11:46.666Z,98366.19
2023-03-25T05:14:14.746Z,98370.47
2023-03-25T05:16:41.784Z,98373.03
2023-03-25T05:19:08.784Z,98378.22
2023-03-25T05:21:37.600Z,98370.50
2023-03-25T05:24:08.394Z,98369.66
2023-03-25T05:26:35.540Z,98352.53
2023-03-25T05:29:06.490Z,98349.97
2023-03-25T05:31:33.514Z,98350.81
2023-03-25T05:34:00.463Z,98356.84
2023-03-25T05:36:27.523Z,98358.56
2023-03-25T05:38:54.785Z,98365.38
2023-03-25T05:41:22.877Z,98375.66
2023-03-25T05:43:50.803Z,98376.50
2023-03-25T05:46:19.111Z,98364.50
2023-03-25T05:48:46.155Z,98367.03
2023-03-25T05:51:16.054Z,98356.72
2023-03-25T05:53:44.038Z,98357.56
2023-03-25T05:56:12.014Z,98343.78
2023-03-25T05:58:39.376Z,98361.75
2023-03-25T06:01:09.292Z,98360.00
2023-03-25T06:03:42.088Z,98353.97
2023-03-25T06:06:14.153Z,98345.41
2023-03-25T06:08:41.653Z,98348.81
2023-03-25T06:11:14.087Z,98342.84
2023-03-25T06:13:41.594Z,98342.78
2023-03-25T06:16:09.746Z,98332.47
2023-03-25T06:18:37.617Z,98334.97
2023-03-25T06:21:04.934Z,98330.69
2023-03-25T06:23:35.469Z,98324.66
2023-03-25T06:26:04.384Z,98326.34
2023-03-25T06:28:33.660Z,98319.47
2023-03-25T06:31:07.365Z,98320.28
2023-03-25T06:33:42.516Z,98313.38
2023-03-25T06:36:11.986Z,98326.22
2023-03-25T06:38:39.701Z,98332.25
2023-03-25T06:41:10.254Z,98323.63
2023-03-25T06:43:38.450Z,98337.34
2023-03-25T06:46:28.183Z,98332.19
2023-03-25T06:49:11.122Z,98323.53
2023-03-25T06:51:38.124Z,98320.94
2023-03-25T06:54:05.424Z,98320.91
2023-03-25T06:56:32.490Z,98314.84
2023-03-25T06:58:59.573Z,98306.16
2023-03-25T07:01:26.543Z,98300.03
2023-03-25T07:03:54.554Z,98302.47
2023-03-25T07:06:23.786Z,98295.50
2023-03-25T07:08:50.817Z,98291.06
2023-03-25T07:11:21.537Z,98293.53
2023-03-25T07:13:48.565Z,98297.72
2023-03-25T07:16:15.734Z,98295.94
2023-03-25T07:18:42.725Z,98284.75
2023-03-25T07:21:09.666Z,98284.72
2023-03-25T07:23:36.663Z,98282.13
2023-03-25T07:26:03.535Z,98283.81
2023-03-25T07:28:30.557Z,98277.72
2023-03-25T07:30:57.574Z,98278.53
2023-03-25T07:33:24.617Z,98269.06
2023-03-25T07:35:51.642Z,98271.69
2023-03-25T07:38:18.752Z,98264.78
2023-03-25T07:40:50.233Z,98263.00
2023-03-25T07:43:17.420Z,98257.81
2023-03-25T07:45:53.877Z,98260.47
2023-03-25T07:48:22.838Z,98252.78
2023-03-25T07:50:51.389Z,98252.72
2023-03-25T07:53:18.524Z,98257.00
2023-03-25T07:55:45.862Z,98263.88
2023-03-25T07:58:13.105Z,98263.91
2023-03-25T08:00:40.101Z,98268.25
2023-03-25T08:03:07.295Z,98269.13
2023-03-25T08:05:34.401Z,98267.44
2023-03-25T08:08:01.481Z,98266.53
2023-03-25T08:10:28.543Z,98264.72
2023-03-25T08:12:55.520Z,98257.81
2023-03-25T08:15:24.834Z,98262.00
2023-03-25T08:17:52.440Z,98261.88
2023-03-25T08:20:19.676Z,98266.97
2023-03-25T08:22:46.611Z,98266.03
2023-03-25T08:25:14.530Z,98275.41
2023-03-25T08:27:41.517Z,98263.38
2023-03-25T08:30:10.279Z,98268.56
2023-03-25T08:32:38.535Z,98272.00
2023-03-25T08:35:06.394Z,98278.81
2023-03-25T08:37:37.877Z,98278.72
2023-03-25T08:40:11.741Z,98271.72
2023-03-25T08:42:39.102Z,98272.44
2023-03-25T08:45:07.304Z,98262.03
2023-03-25T08:47:34.307Z,98267.09
2023-03-25T08:50:01.341Z,98260.09
2023-03-25T08:52:28.812Z,98254.88
2023-03-25T08:54:55.707Z,98264.22
2023-03-25T08:57:22.619Z,98253.78
2023-03-25T08:59:50.422Z,98261.31
2023-03-25T09:02:18.384Z,98265.38
2023-03-25T09:04:48.493Z,98259.22
2023-03-25T09:07:15.926Z,98252.28
2023-03-25T09:09:43.015Z,98261.81
2023-03-25T09:12:11.458Z,98267.09
2023-03-25T09:14:38.522Z,98274.78
2023-03-25T09:17:06.382Z,98283.47
2023-03-25T09:19:38.120Z,98274.06
2023-03-25T09:22:05.736Z,98278.38
2023-03-25T09:24:34.264Z,98281.72
2023-03-25T09:27:02.409Z,98282.50
2023-03-25T09:29:29.780Z,98287.66
2023-03-25T09:31:58.392Z,98287.72
2023-03-25T09:34:25.941Z,98285.13
2023-03-25T09:36:53.051Z,98284.25
2023-03-25T09:39:20.136Z,98286.84
2023-03-25T09:41:54.335Z,98284.25
2023-03-25T09:44:25.441Z,98282.47
2023-03-25T09:46:52.413Z,98279.06
2023-03-25T09:49:22.569Z,98275.66
2023-03-25T09:51:50.407Z,98275.66
2023-03-25T09:54:25.500Z,98267.16
2023-03-25T09:56:53.445Z,98279.31
2023-03-25T09:59:23.295Z,98275.06
2023-03-25T10:01:55.990Z,98281.16
2023-03-25T10:04:46.756Z,98293.25
2023-03-25T10:07:50.575Z,98297.72
2023-03-25T10:10:42.566Z,98296.09
2023-03-25T10:13:14.886Z,98296.19
2023-03-25T10:15:59.362Z,98295.38
2023-03-25T10:18:34.099Z,98298.78
2023-03-25T10:21:12.251Z,98291.88
2023-03-25T10:23:51.708Z,98283.28
2023-03-25T10:26:24.501Z,98294.47
2023-03-25T10:28:59.781Z,98289.28
2023-03-25T10:31:27.081Z,98286.00
2023-03-25T10:33:56.254Z,98292.13
2023-03-25T10:36:39.905Z,98286.16
2023-03-25T10:39:15.098Z,98287.88
2023-03-25T10:41:43.531Z,98294.84
2023-03-25T10:44:10.962Z,98291.41
2023-03-25T10:46:47.398Z,98292.22
2023-03-25T10:49:18.746Z,98292.16
2023-03-25T10:51:45.803Z,98296.44
2023-03-25T10:54:12.959Z,98287.81
2023-03-25T10:56:48.240Z,98292.00
2023-03-25T10:59:20.088Z,98294.59
2023-03-25T11:01:47.075Z,98304.00
2023-03-25T11:04:17.172Z,98305.72
2023-03-25T11:06:55.498Z,98307.41
2023-03-25T11:09:28.176Z,98308.31
2023-03-25T11:11:55.155Z,98310.88
2023-03-25T11:14:26.306Z,98314.34
2023-03-25T11:17:15.403Z,98317.75
2023-03-25T11:19:44.320Z,98323.78
2023-03-25T11:22:24.245Z,98321.28
2023-03-25T11:24:54.765Z,98319.53
2023-03-25T11:27:24.205Z,98315.22
2023-03-25T11:29:56.347Z,98323.78
2023-03-25T11:32:25.095Z,98317.75
2023-03-25T11:34:52.528Z,98322.09
2023-03-25T11:37:24.409Z,98324.63
2023-03-25T11:39:55.498Z,98324.63
2023-03-25T11:42:25.551Z,98322.88
2023-03-25T11:44:53.119Z,98320.19
2023-03-25T11:47:35.120Z,98314.16
2023-03-25T11:50:02.367Z,98306.44
2023-03-25T11:52:46.931Z,98304.63
2023-03-25T11:55:23.939Z,98308.06
2023-03-25T11:57:51.256Z,98313.22
2023-03-25T12:00:37.286Z,98314.09
2023-03-25T12:03:30.596Z,98324.44
2023-03-25T12:06:16.751Z,98320.19
2023-03-25T12:08:46.360Z,98315.84
2023-03-25T12:11:21.827Z,98315.81
2023-03-25T12:13:51.965Z,98314.97
2023-03-25T12:16:40.731Z,98319.25
2023-03-25T12:19:10.450Z,98315.84
2023-03-25T12:21:37.284Z,98314.09
2023-03-25T12:24:16.573Z,98311.44
2023-03-25T12:27:08.452Z,98310.53
2023-03-25T12:29:43.152Z,98308.00
2023-03-25T12:32:38.498Z,98308.00
2023-03-25T12:35:17.592Z,98312.28
2023-03-25T12:38:04.859Z,98307.16
2023-03-25T12:40:59.771Z,98306.34
2023-03-25T12:43:35.206Z,98305.50
2023-03-25T12:46:30.366Z,98309.75
2023-03-25T12:49:34.060Z,98311.47
2023-03-25T12:52:41.537Z,98307.31
2023-03-25T12:55:39.927Z,98309.94
2023-03-25T12:58:27.727Z,98306.44
2023-03-25T13:01:10.867Z,98299.53
2023-03-25T13:03:50.040Z,98296.06
2023-03-25T13:06:18.727Z,98300.38
2023-03-25T13:09:11.408Z,98294.31
2023-03-25T13:11:59.747Z,98296.00
2023-03-25T13:14:30.326Z,98297.75
2023-03-25T13:17:00.164Z,98296.00
2023-03-25T13:19:27.939Z,98297.66
2023-03-25T13:22:03.826Z,98291.59
2023-03-25T13:24:53.719Z,98294.19
2023-03-25T13:27:20.705Z,98301.91
2023-03-25T13:29:53.079Z,98307.94
2023-03-25T13:32:37.203Z,98309.66
2023-03-25T13:35:07.880Z,98299.31
2023-03-25T13:37:39.201Z,98301.88
2023-03-25T13:40:28.319Z,98301.88
2023-03-25T13:43:04.866Z,98295.91
2023-03-25T13:45:43.302Z,98299.38
2023-03-25T13:48:35.163Z,98305.41
2023-03-25T13:51:03.736Z,98296.88
2023-03-25T13:53:33.570Z,98299.47
2023-03-25T13:56:06.663Z,98300.38
2023-03-25T13:59:01.610Z,98297.81
2023-03-25T14:01:56.437Z,98301.22
2023-03-25T14:04:48.206Z,98300.34
2023-03-25T14:07:27.438Z,98298.69
2023-03-25T14:10:25.705Z,98291.81
2023-03-25T14:12:59.990Z,98295.22
2023-03-25T14:15:30.245Z,98299.56
2023-03-25T14:17:57.557Z,98297.00
2023-03-25T14:20:35.108Z,98295.28
2023-03-25T14:23:04.467Z,98291.81
2023-03-25T14:25:48.653Z,98295.34
2023-03-25T14:28:39.953Z,98297.97
2023-03-25T14:31:09.030Z,98301.50
2023-03-25T14:34:07.734Z,98300.69
2023-03-25T14:36:40.890Z,98303.31
2023-03-25T14:39:30.885Z,98305.91
2023-03-25T14:42:05.830Z,98310.19
2023-03-25T14:44:41.096Z,98305.03
2023-03-25T14:47:16.117Z,98311.94
2023-03-25T14:50:01.744Z,98305.06
2023-03-25T14:52:45.801Z,98296.50
2023-03-25T14:55:26.419Z,98307.66
2023-03-25T14:57:59.069Z,98306.00
2023-03-25T15:00:29.879Z,98299.19
2023-03-25T15:03:14.356Z,98310.38
2023-03-25T15:05:41.459Z,98313.00
2023-03-25T15:08:16.841Z,98324.22
2023-03-25T15:10:46.051Z,98319.09
2023-03-25T15:13:22.077Z,98326.91
2023-03-25T15:15:50.773Z,98329.66
2023-03-25T15:18:35.655Z,98333.97
2023-03-25T15:21:08.762Z,98340.00
2023-03-25T15:23:47.600Z,98333.16
2023-03-25T15:26:31.144Z,98338.34
2023-03-25T15:29:16.471Z,98338.34
2023-03-25T15:32:01.548Z,98332.34
2023-03-25T15:35:06.240Z,98336.69
2023-03-25T15:37:52.720Z,98341.91
2023-03-25T15:40:26.702Z,98341.97
2023-03-25T15:43:20.756Z,98347.13
2023-03-25T15:46:07.015Z,98342.88
2023-03-25T15:49:01.737Z,98351.47
2023-03-25T15:52:02.511Z,98360.13
2023-03-25T15:54:45.447Z,98358.50
2023-03-25T15:57:34.664Z,98363.69
2023-03-25T16:00:18.463Z,98370.63
2023-03-25T16:02:51.611Z,98369.75
2023-03-25T16:05:18.893Z,98378.38
2023-03-25T16:07:46.525Z,98376.63
2023-03-25T16:10:16.693Z,98378.31
2023-03-25T16:12:46.331Z,98386.00
2023-03-25T16:15:17.680Z,98395.44
2023-03-25T16:17:45.023Z,98393.72
2023-03-25T16:20:18.342Z,98392.84
2023-03-25T16:22:50.040Z,98400.53
2023-03-25T16:25:22.105Z,98393.69
2023-03-25T16:27:54.798Z,98394.50
2023-03-25T16:30:38.943Z,98395.38
2023-03-25T16:33:10.457Z,98396.28
2023-03-25T16:35:39.747Z,98398.94
2023-03-25T16:38:06.776Z,98398.13
2023-03-25T16:40:40.241Z,98401.63
2023-03-25T16:43:23.884Z,98404.22
2023-03-25T16:45:52.058Z,98400.81
2023-03-25T16:48:22.777Z,98403.44
2023-03-25T16:50:51.340Z,98400.03
2023-03-25T16:53:18.598Z,98390.56
2023-03-25T16:55:47.350Z,98402.56
2023-03-25T16:58:23.452Z,98396.53
2023-03-25T17:00:51.848Z,98398.25
2023-03-25T17:03:37.841Z,98399.09
2023-03-25T17:06:13.265Z,98400.84
2023-03-25T17:08:40.245Z,98405.13
2023-03-25T17:11:08.300Z,98411.13
2023-03-25T17:13:43.766Z,98415.47
2023-03-25T17:16:10.773Z,98412.13
2023-03-25T17:18:39.208Z,98419.03
2023-03-25T17:21:11.689Z,98425.91
2023-03-25T17:23:41.774Z,98419.09
2023-03-25T17:26:12.905Z,98423.41
2023-03-25T17:28:49.329Z,98428.56
2023-03-25T17:31:36.442Z,98431.09
2023-03-25T17:34:37.326Z,98424.22
2023-03-25T17:37:04.199Z,98432.78
2023-03-25T17:39:32.263Z,98430.22
2023-03-25T17:42:06.816Z,98425.94
2023-03-25T17:44:41.465Z,98425.94
2023-03-25T17:47:10.802Z,98429.34
2023-03-25T17:49:37.866Z,98431.94
2023-03-25T17:52:04.958Z,98441.41
2023-03-25T17:54:35.974Z,98448.28
2023-03-25T17:57:04.064Z,98445.69
2023-03-25T17:59:31.100Z,98436.28
2023-03-25T18:01:58.631Z,98441.41
2023-03-25T18:04:25.739Z,98437.16
2023-03-25T18:06:52.948Z,98439.69
2023-03-25T18:09:22.154Z,98447.44
2023-03-25T18:11:53.785Z,98444.00
2023-03-25T18:14:21.563Z,98443.97
2023-03-25T18:16:48.749Z,98433.63
2023-03-25T18:19:18.096Z,98430.19
2023-03-25T18:21:45.634Z,98441.38
2023-03-25T18:24:16.093Z,98438.81
2023-03-25T18:26:43.789Z,98431.94
2023-03-25T18:29:18.232Z,98438.88
2023-03-25T18:31:45.467Z,98438.88
2023-03-25T18:34:13.162Z,98445.81
2023-03-25T18:36:41.138Z,98444.97
2023-03-25T18:39:15.516Z,98444.94
2023-03-25T18:41:42.600Z,98449.19
2023-03-25T18:44:09.976Z,98454.34
2023-03-25T18:46:41.697Z,98452.56
2023-03-25T18:49:13.852Z,98456.84
2023-03-25T18:51:40.935Z,98457.72
2023-03-25T18:54:07.861Z,98457.69
2023-03-25T18:56:34.912Z,98458.53
2023-03-25T18:59:01.973Z,98452.56
2023-03-25T19:01:29.199Z,98444.88
2023-03-25T19:04:02.330Z,98440.56
2023-03-25T19:06:29.994Z,98450.00
2023-03-25T19:08:57.492Z,98456.00
2023-03-25T19:11:24.790Z,98452.56
2023-03-25T19:13:51.837Z,98456.00
2023-03-25T19:16:19.099Z,98453.41
2023-03-25T19:18:47.712Z,98445.66
2023-03-25T19:21:19.027Z,98447.34
2023-03-25T19:23:46.554Z,98450.78
2023-03-25T19:26:13.529Z,98453.31
2023-03-25T19:28:41.319Z,98449.91
2023-03-25T19:31:08.326Z,98450.78
2023-03-25T19:33:35.357Z,98450.81
2023-03-25T19:36:04.546Z,98450.00
2023-03-25T19:38:33.082Z,98454.34
2023-03-25T19:41:08.290Z,98448.38
2023-03-25T19:43:35.944Z,98440.63
2023-03-25T19:46:03.026Z,98444.91
2023-03-25T19:48:30.173Z,98444.03
2023-03-25T19:50:57.530Z,98454.38
2023-03-25T19:53:24.930Z,98455.25
2023-03-25T19:55:52.258Z,98464.69
2023-03-25T19:58:20.503Z,98459.53
2023-03-25T20:00:47.788Z,98458.66
2023-03-25T20:03:14.823Z,98456.84
2023-03-25T20:05:42.077Z,98459.38
2023-03-25T20:08:09.608Z,98460.19
2023-03-25T20:10:37.932Z,98467.03
2023-03-25T20:13:04.886Z,98472.22
2023-03-25T20:15:32.381Z,98463.66
2023-03-25T20:17:59.448Z,98467.97
2023-03-25T20:20:26.534Z,98468.84
2023-03-25T20:22:53.604Z,98467.97
2023-03-25T20:25:20.601Z,98473.91
2023-03-25T20:27:47.669Z,98474.72
2023-03-25T20:30:17.011Z,98472.94
2023-03-25T20:32:45.731Z,98470.34
2023-03-25T20:35:15.027Z,98470.28
2023-03-25T20:37:42.678Z,98473.72
2023-03-25T20:40:11.904Z,98488.38
2023-03-25T20:42:42.828Z,98485.75
2023-03-25T20:45:11.420Z,98490.09
2023-03-25T20:47:38.572Z,98479.81
2023-03-25T20:50:06.507Z,98485.84
2023-03-25T20:52:34.337Z,98490.19
2023-03-25T20:55:01.432Z,98487.66
2023-03-25T20:57:29.703Z,98479.94
2023-03-25T20:59:56.874Z,98481.66
2023-03-25T21:02:24.580Z,98479.09
2023-03-25T21:04:55.292Z,98478.25
2023-03-25T21:07:22.391Z,98473.97
2023-03-25T21:09:49.964Z,98483.34
2023-03-25T21:12:17.236Z,98479.94
2023-03-25T21:14:44.368Z,98475.63
2023-03-25T21:17:11.567Z,98481.59
2023-03-25T21:19:38.548Z,98483.31
2023-03-25T21:22:05.596Z,98483.34
2023-03-25T21:24:35.775Z,98481.59
2023-03-25T21:27:03.097Z,98479.84
2023-03-25T21:29:30.108Z,98473.84
2023-03-25T21:31:57.826Z,98484.97
2023-03-25T21:34:25.193Z,98477.22
2023-03-25T21:36:52.155Z,98469.47
2023-03-25T21:39:19.071Z,98466.84
2023-03-25T21:41:46.292Z,98469.41
2023-03-25T21:44:15.959Z,98471.94
2023-03-25T21:46:43.420Z,98465.97
2023-03-25T21:49:11.677Z,98466.94
2023-03-25T21:51:42.661Z,98475.56
2023-03-25T21:54:10.726Z,98471.25
2023-03-25T21:56:40.150Z,98475.59
2023-03-25T21:59:07.244Z,98478.97
2023-03-25T22:01:35.886Z,98478.00
2023-03-25T22:04:03.791Z,98474.53
2023-03-25T22:06:31.813Z,98477.91
2023-03-25T22:08:59.173Z,98473.59
2023-03-25T22:11:29.650Z,98472.75
2023-03-25T22:13:56.808Z,98464.28
2023-03-25T22:16:23.880Z,98466.03
2023-03-25T22:18:50.948Z,98455.81
2023-03-25T22:21:26.327Z,98461.06
2023-03-25T22:23:54.401Z,98466.28
2023-03-25T22:26:21.901Z,98466.31
2023-03-25T22:28:51.201Z,98466.25
2023-03-25T22:31:19.295Z,98468.81
2023-03-25T22:33:46.547Z,98470.50
2023-03-25T22:36:14.832Z,98464.53
2023-03-25T22:38:46.286Z,98468.78
2023-03-25T22:41:14.611Z,98467.09
2023-03-25T22:43:41.738Z,98476.56
2023-03-25T22:46:09.053Z,98475.75
2023-03-25T22:48:39.155Z,98472.31
2023-03-25T22:51:10.911Z,98474.84
2023-03-25T22:53:37.813Z,98464.59
2023-03-25T22:56:05.270Z,98462.06
2023-03-25T22:58:32.414Z,98466.31
2023-03-25T23:01:00.382Z,98463.72
2023-03-25T23:03:27.814Z,98467.16
2023-03-25T23:05:58.653Z,98463.69
2023-03-25T23:08:30.034Z,98461.91
2023-03-25T23:11:11.488Z,98467.03
2023-03-25T23:13:39.393Z,98459.25
2023-03-25T23:16:11.140Z,98454.94
2023-03-25T23:18:39.307Z,98444.63
2023-03-25T23:21:06.925Z,98443.84
2023-03-25T23:23:34.058Z,98443.06
2023-03-25T23:26:14.788Z,98445.72
2023-03-25T23:28:44.423Z,98441.44
2023-03-25T23:31:14.946Z,98442.34
2023-03-25T23:33:42.404Z,98444.03
2023-03-25T23:36:09.967Z,98450.88
2023-03-25T23:38:37.082Z,98443.97
2023-03-25T23:41:11.465Z,98451.66
2023-03-25T23:43:38.519Z,98446.53
2023-03-25T23:46:06.402Z,98445.72
2023-03-25T23:48:33.743Z,98447.44
2023-03-25T23:51:00.797Z,98442.31
2023-03-25T23:53:27.740Z,98439.75
2023-03-25T23:55:55.596Z,98438.03
2023-03-25T23:58:25.244Z,98438.88
